createdAt,value
2022-12-23T00:01:27.907Z,21.88
2022-12-23T00:03:58.349Z,22.50
2022-12-23T00:06:25.374Z,18.50
2022-12-23T00:08:58.410Z,22.83
2022-12-23T00:11:26.806Z,22.38
2022-12-23T00:14:18.438Z,17.08
2022-12-23T00:16:48.172Z,19.63
2022-12-23T00:19:14.762Z,20.38
2022-12-23T00:21:41.288Z,22.92
2022-12-23T00:24:07.942Z,22.02
2022-12-23T00:26:34.517Z,17.63
2022-12-23T00:29:01.051Z,23.17
2022-12-23T00:31:27.658Z,29.08
2022-12-23T00:33:54.421Z,25.63
2022-12-23T00:36:25.119Z,21.92
2022-12-23T00:39:12.175Z,24.52
2022-12-23T00:41:59.047Z,23.70
2022-12-23T00:44:25.796Z,18.58
2022-12-23T00:46:52.404Z,20.63
2022-12-23T00:49:40.277Z,21.27
2022-12-23T00:52:10.767Z,24.98
2022-12-23T00:54:37.469Z,23.42
2022-12-23T00:57:04.501Z,21.48
2022-12-23T00:59:31.099Z,22.42
2022-12-23T01:02:17.639Z,23.92
2022-12-23T01:05:04.224Z,19.42
2022-12-23T01:07:30.868Z,22.67
2022-12-23T01:09:57.435Z,17.35
2022-12-23T01:12:23.990Z,23.15
2022-12-23T01:14:50.556Z,17.02
2022-12-23T01:17:18.347Z,22.85
2022-12-23T01:19:45.020Z,17.17
2022-12-23T01:22:11.634Z,23.40
2022-12-23T01:24:38.195Z,21.20
2022-12-23T01:27:04.760Z,20.00
2022-12-23T01:29:31.394Z,14.18
2022-12-23T01:31:58.062Z,15.32
2022-12-23T01:34:24.659Z,15.48
2022-12-23T01:36:51.244Z,17.50
2022-12-23T01:39:17.876Z,17.80
2022-12-23T01:42:04.428Z,16.20
2022-12-23T01:44:50.585Z,164.48
2022-12-23T01:47:32.058Z,120.22
2022-12-23T01:50:04.822Z,146.73
2022-12-23T01:52:36.154Z,88.07
2022-12-23T01:55:02.812Z,91.95
2022-12-23T01:57:29.691Z,65.10
2022-12-23T02:00:16.273Z,118.75
2022-12-23T02:03:03.611Z,88.35
2022-12-23T02:05:30.665Z,77.50
2022-12-23T02:08:17.888Z,125.05
2022-12-23T02:11:04.759Z,79.28
2022-12-23T02:14:03.270Z,33.60
2022-12-23T02:16:34.973Z,31.75
2022-12-23T02:25:15.772Z,45.60
2022-12-23T02:30:25.100Z,48.10
2022-12-23T02:38:45.836Z,109.47
2022-12-23T02:44:02.816Z,101.30
2022-12-23T02:46:38.467Z,125.35
2022-12-23T02:49:12.063Z,90.00
2022-12-23T02:51:44.355Z,45.65
2022-12-23T02:54:18.310Z,34.63
2022-12-23T02:56:49.181Z,37.30
2022-12-23T02:59:20.395Z,33.05
2022-12-23T03:01:49.981Z,41.53
2022-12-23T03:04:16.636Z,29.20
2022-12-23T03:06:48.331Z,32.15
2022-12-23T03:09:24.753Z,26.88
2022-12-23T03:12:02.944Z,27.92
2022-12-23T03:14:53.762Z,27.65
2022-12-23T03:23:03.809Z,93.32
2022-12-23T03:25:35.980Z,151.30
2022-12-23T03:30:46.426Z,128.15
2022-12-23T03:33:18.923Z,161.68
2022-12-23T03:35:55.594Z,146.40
2022-12-23T03:38:23.665Z,122.47
2022-12-23T03:40:56.328Z,136.45
2022-12-23T03:43:33.175Z,95.50
2022-12-23T03:48:41.090Z,132.48
2022-12-23T03:51:14.647Z,118.53
2022-12-23T03:53:49.630Z,115.57
2022-12-23T03:56:23.197Z,98.90
2022-12-23T04:09:36.112Z,35.75
2022-12-23T04:12:03.282Z,28.23
2022-12-23T04:14:30.385Z,28.27
2022-12-23T04:16:58.500Z,31.65
2022-12-23T04:19:25.389Z,28.17
2022-12-23T04:21:54.162Z,33.20
2022-12-23T04:24:20.714Z,21.42
2022-12-23T04:26:47.255Z,27.55
2022-12-23T04:29:13.805Z,27.27
2022-12-23T04:31:40.555Z,28.33
2022-12-23T04:34:07.193Z,31.63
2022-12-23T04:36:33.731Z,27.33
2022-12-23T04:39:00.472Z,16.70
2022-12-23T04:41:27.052Z,36.42
2022-12-23T04:43:53.708Z,30.25
2022-12-23T04:46:20.874Z,28.23
2022-12-23T04:48:47.558Z,34.45
2022-12-23T04:51:14.188Z,30.52
2022-12-23T04:53:40.795Z,29.60
2022-12-23T04:56:07.397Z,26.05
2022-12-23T04:58:34.027Z,23.02
2022-12-23T05:01:10.429Z,18.75
2022-12-23T05:03:38.660Z,22.13
2022-12-23T05:06:05.961Z,20.75
2022-12-23T05:08:33.135Z,19.00
2022-12-23T05:10:59.679Z,21.83
2022-12-23T05:13:26.860Z,26.70
2022-12-23T05:15:54.649Z,15.82
2022-12-23T05:18:22.137Z,21.35
2022-12-23T05:20:49.444Z,19.77
2022-12-23T05:23:16.149Z,16.48
2022-12-23T05:25:42.743Z,22.25
2022-12-23T05:28:09.633Z,16.38
2022-12-23T05:30:36.497Z,29.00
2022-12-23T05:33:03.180Z,27.38
2022-12-23T05:35:29.773Z,20.45
2022-12-23T05:37:57.804Z,23.90
2022-12-23T05:40:29.485Z,19.25
2022-12-23T05:42:57.881Z,28.10
2022-12-23T05:45:24.599Z,21.45
2022-12-23T05:47:51.124Z,22.92
2022-12-23T05:50:18.632Z,28.20
2022-12-23T05:52:45.190Z,29.35
2022-12-23T05:55:11.748Z,27.00
2022-12-23T05:57:38.338Z,23.48
2022-12-23T06:00:05.301Z,21.73
2022-12-23T06:02:31.962Z,29.98
2022-12-23T06:04:58.635Z,22.30
2022-12-23T06:07:25.245Z,29.50
2022-12-23T06:09:51.864Z,38.47
2022-12-23T06:12:18.379Z,36.53
2022-12-23T06:14:44.964Z,96.78
2022-12-23T06:17:11.490Z,93.72
2022-12-23T06:19:38.046Z,84.28
2022-12-23T06:22:04.653Z,66.57
2022-12-23T06:24:31.220Z,85.78
2022-12-23T06:26:57.823Z,99.63
2022-12-23T06:29:24.993Z,45.60
2022-12-23T06:31:51.672Z,65.53
2022-12-23T06:34:18.419Z,68.22
2022-12-23T06:36:44.974Z,39.92
2022-12-23T06:39:11.899Z,54.80
2022-12-23T06:41:38.479Z,24.17
2022-12-23T06:44:05.330Z,15.27
2022-12-23T06:46:32.185Z,16.80
2022-12-23T06:48:58.827Z,29.83
2022-12-23T06:51:25.384Z,72.50
2022-12-23T06:53:51.909Z,67.07
2022-12-23T06:56:18.892Z,57.83
2022-12-23T06:58:45.452Z,51.85
2022-12-23T07:01:12.226Z,93.88
2022-12-23T07:03:38.952Z,60.10
2022-12-23T07:06:05.855Z,70.38
2022-12-23T07:08:32.399Z,61.38
2022-12-23T07:11:00.126Z,39.42
2022-12-23T07:13:27.093Z,21.17
2022-12-23T07:15:53.650Z,70.47
2022-12-23T07:18:22.935Z,49.00
2022-12-23T07:20:50.817Z,38.45
2022-12-23T07:23:17.536Z,17.88
2022-12-23T07:25:44.654Z,13.02
2022-12-23T07:28:11.183Z,17.95
2022-12-23T07:30:37.756Z,13.30
2022-12-23T07:33:04.332Z,15.68
2022-12-23T07:35:30.880Z,14.63
2022-12-23T07:37:57.480Z,12.65
2022-12-23T07:40:24.918Z,13.20
2022-12-23T07:42:56.843Z,18.35
2022-12-23T07:45:24.260Z,8.40
2022-12-23T07:47:54.368Z,15.82
2022-12-23T07:50:22.103Z,13.57
2022-12-23T07:52:48.863Z,11.85
2022-12-23T07:55:15.492Z,14.40
2022-12-23T07:57:42.064Z,7.88
2022-12-23T08:00:11.543Z,14.02
2022-12-23T08:02:38.450Z,13.02
2022-12-23T08:05:05.665Z,11.70
2022-12-23T08:07:32.350Z,10.93
2022-12-23T08:09:58.910Z,12.25
2022-12-23T08:12:26.115Z,12.65
2022-12-23T08:14:52.930Z,14.05
2022-12-23T08:17:21.648Z,10.82
2022-12-23T08:19:48.950Z,10.02
2022-12-23T08:22:16.000Z,13.27
2022-12-23T08:24:42.523Z,11.70
2022-12-23T08:27:09.106Z,15.25
2022-12-23T08:29:36.621Z,13.55
2022-12-23T08:32:03.583Z,13.20
2022-12-23T08:34:30.147Z,10.68
2022-12-23T08:36:56.745Z,12.25
2022-12-23T08:39:23.297Z,9.43
2022-12-23T08:41:49.861Z,9.90
2022-12-23T08:44:17.481Z,11.02
2022-12-23T08:46:44.358Z,9.35
2022-12-23T08:49:11.311Z,8.00
2022-12-23T08:51:38.668Z,9.57
2022-12-23T08:54:06.235Z,8.93
2022-12-23T08:56:36.299Z,8.60
2022-12-23T08:59:04.450Z,8.38
2022-12-23T09:01:33.627Z,7.13
2022-12-23T09:04:05.328Z,9.00
2022-12-23T09:06:36.875Z,7.97
2022-12-23T09:09:04.316Z,9.45
2022-12-23T09:11:31.227Z,8.38
2022-12-23T09:13:59.780Z,8.57
2022-12-23T09:16:26.642Z,9.32
2022-12-23T09:18:53.426Z,10.18
2022-12-23T09:21:21.705Z,5.40
2022-12-23T09:23:48.775Z,5.78
2022-12-23T09:26:21.502Z,6.35
2022-12-23T09:28:48.069Z,6.90
2022-12-23T09:31:15.463Z,7.68
2022-12-23T09:33:42.468Z,5.80
2022-12-23T09:36:09.512Z,6.03
2022-12-23T09:38:36.314Z,5.80
2022-12-23T09:46:51.255Z,7.90
2022-12-23T09:49:19.713Z,6.35
2022-12-23T09:51:47.190Z,4.22
2022-12-23T09:54:38.246Z,7.05
2022-12-23T10:00:11.590Z,5.38
2022-12-23T10:05:56.290Z,7.35
2022-12-23T10:08:33.505Z,6.55
2022-12-23T10:11:07.711Z,4.72
2022-12-23T10:16:19.213Z,4.05
2022-12-23T10:19:14.750Z,3.80
2022-12-23T10:24:23.114Z,5.57
2022-12-23T10:26:56.413Z,6.63
2022-12-23T10:29:25.836Z,5.22
2022-12-23T10:32:32.290Z,3.63
2022-12-23T10:35:28.759Z,3.42
2022-12-23T10:41:08.824Z,5.47
2022-12-23T10:54:49.498Z,6.38
2022-12-23T10:57:18.715Z,5.03
2022-12-23T10:59:45.925Z,5.15
2022-12-23T11:04:50.059Z,3.83
2022-12-23T11:10:16.987Z,4.38
2022-12-23T11:12:47.488Z,4.53
2022-12-23T11:15:36.155Z,3.30
2022-12-23T11:20:46.189Z,6.80
2022-12-23T11:23:31.677Z,4.03
2022-12-23T11:26:02.634Z,2.72
2022-12-23T11:28:31.274Z,4.78
2022-12-23T11:31:12.057Z,2.88
2022-12-23T11:33:45.869Z,2.30
2022-12-23T11:38:54.604Z,2.97
2022-12-23T11:41:23.624Z,1.67
2022-12-23T11:44:28.962Z,5.03
2022-12-23T11:46:55.641Z,14.80
2022-12-23T11:52:19.000Z,12.88
2022-12-23T11:54:54.914Z,5.22
2022-12-23T11:57:30.271Z,3.58
2022-12-23T12:00:01.781Z,3.28
2022-12-23T12:07:43.637Z,6.75
2022-12-23T12:10:18.263Z,29.70
2022-12-23T12:12:48.751Z,17.40
2022-12-23T12:15:27.268Z,4.75
2022-12-23T12:17:56.631Z,6.65
2022-12-23T12:20:38.887Z,8.23
2022-12-23T12:23:13.178Z,4.50
2022-12-23T12:25:46.854Z,5.22
2022-12-23T12:28:21.185Z,3.65
2022-12-23T12:30:53.904Z,3.45
2022-12-23T12:33:30.302Z,3.47
2022-12-23T12:36:09.836Z,2.13
2022-12-23T12:38:39.158Z,3.75
2022-12-23T12:44:33.478Z,3.90
2022-12-23T12:47:28.188Z,3.35
2022-12-23T12:49:59.639Z,2.85
2022-12-23T12:52:28.078Z,1.98
2022-12-23T12:57:36.639Z,3.35
2022-12-23T13:00:06.881Z,3.40
2022-12-23T13:10:57.014Z,3.55
2022-12-23T13:16:27.869Z,3.33
2022-12-23T13:27:03.158Z,3.50
2022-12-23T13:32:33.592Z,1.98
2022-12-23T13:35:39.947Z,2.45
2022-12-23T13:43:49.660Z,1.55
2022-12-23T13:49:08.633Z,2.13
2022-12-23T13:56:58.022Z,2.72
2022-12-23T13:59:39.372Z,2.00
2022-12-23T14:02:42.716Z,2.75
2022-12-23T14:08:08.244Z,4.00
2022-12-23T14:10:36.181Z,3.38
2022-12-23T14:13:08.489Z,2.20
2022-12-23T14:20:55.262Z,2.10
2022-12-23T14:26:25.188Z,2.58
2022-12-23T14:31:41.286Z,2.13
2022-12-23T14:34:30.810Z,3.08
2022-12-23T14:39:59.375Z,3.30
2022-12-23T14:42:43.526Z,1.85
2022-12-23T14:45:42.706Z,1.77
2022-12-23T14:48:49.070Z,2.30
2022-12-23T14:51:37.906Z,1.48
2022-12-23T15:02:21.114Z,2.97
2022-12-23T15:04:55.459Z,3.78
2022-12-23T15:07:28.841Z,3.17
2022-12-23T15:10:01.042Z,3.70
2022-12-23T15:15:25.060Z,4.18
2022-12-23T15:18:12.509Z,5.85
2022-12-23T15:20:39.853Z,8.73
2022-12-23T15:23:14.296Z,6.85
2022-12-23T15:25:46.081Z,4.68
2022-12-23T15:28:18.702Z,3.58
2022-12-23T15:30:51.189Z,7.68
2022-12-23T15:34:00.782Z,9.48
2022-12-23T15:36:10.201Z,19.60
2022-12-23T15:38:38.796Z,5.60
2022-12-23T15:41:15.012Z,3.47
2022-12-23T15:43:43.601Z,9.07
2022-12-23T15:46:17.210Z,5.75
2022-12-23T15:48:44.164Z,10.38
2022-12-23T15:51:30.604Z,9.57
2022-12-23T15:54:06.220Z,10.48
2022-12-23T15:56:38.786Z,12.95
2022-12-23T15:59:06.398Z,9.43
2022-12-23T16:01:38.910Z,12.02
2022-12-23T16:04:08.926Z,13.63
2022-12-23T16:06:36.702Z,10.93
2022-12-23T16:27:39.054Z,8.38
2022-12-23T16:30:15.653Z,12.63
2022-12-23T16:32:50.734Z,13.75
2022-12-23T16:38:27.165Z,11.32
2022-12-23T16:40:56.404Z,9.23
2022-12-23T16:43:24.643Z,8.63
2022-12-23T16:45:56.355Z,14.63
2022-12-23T16:51:02.117Z,36.63
2022-12-23T16:53:29.249Z,20.58
2022-12-23T16:56:00.568Z,45.53
2022-12-23T16:58:27.523Z,13.85
2022-12-23T17:00:54.206Z,15.80
2022-12-23T17:03:21.141Z,19.13
2022-12-23T17:05:48.215Z,29.60
2022-12-23T17:08:14.981Z,41.03
2022-12-23T17:10:44.485Z,23.42
2022-12-23T17:13:14.397Z,19.27
2022-12-23T17:15:41.005Z,14.63
2022-12-23T17:18:18.025Z,21.38
2022-12-23T17:20:48.034Z,10.55
2022-12-23T17:23:32.496Z,14.55
2022-12-23T17:25:59.160Z,8.63
2022-12-23T17:28:32.011Z,11.27
2022-12-23T17:30:59.177Z,10.73
2022-12-23T17:33:29.435Z,19.40
2022-12-23T17:38:22.830Z,14.63
2022-12-23T17:40:50.212Z,20.80
2022-12-23T17:43:18.149Z,13.43
2022-12-23T17:45:45.703Z,13.77
2022-12-23T17:48:19.719Z,12.70
2022-12-23T17:50:46.846Z,12.10
2022-12-23T17:53:14.949Z,8.32
2022-12-23T17:55:41.883Z,12.07
2022-12-23T17:58:08.671Z,15.88
2022-12-23T18:00:35.800Z,14.48
2022-12-23T18:03:05.065Z,9.95
2022-12-23T18:05:35.088Z,13.63
2022-12-23T18:08:03.192Z,7.43
2022-12-23T18:10:34.042Z,9.77
2022-12-23T18:13:04.856Z,12.45
2022-12-23T18:15:36.666Z,13.95
2022-12-23T18:18:15.870Z,7.78
2022-12-23T18:20:46.554Z,9.60
2022-12-23T18:23:15.494Z,9.25
2022-12-23T18:25:42.230Z,13.30
2022-12-23T18:28:11.118Z,17.02
2022-12-23T18:30:38.454Z,8.15
2022-12-23T18:33:08.719Z,8.77
2022-12-23T18:38:06.251Z,20.27
2022-12-23T18:40:33.283Z,26.25
2022-12-23T18:43:00.642Z,17.52
2022-12-23T18:45:37.709Z,17.95
2022-12-23T18:48:07.333Z,17.10
2022-12-23T18:50:35.994Z,10.38
2022-12-23T18:53:02.996Z,13.75
2022-12-23T18:55:30.442Z,14.48
2022-12-23T18:57:58.999Z,9.23
2022-12-23T19:00:28.665Z,10.57
2022-12-23T19:02:56.311Z,12.18
2022-12-23T19:05:26.863Z,16.13
2022-12-23T19:07:56.158Z,10.70
2022-12-23T19:10:27.239Z,16.20
2022-12-23T19:12:54.524Z,24.45
2022-12-23T19:15:21.983Z,27.60
2022-12-23T19:17:50.340Z,23.98
2022-12-23T19:20:18.969Z,10.65
2022-12-23T19:22:46.981Z,13.57
2022-12-23T19:25:16.733Z,14.32
2022-12-23T19:27:44.334Z,23.45
2022-12-23T19:30:14.579Z,26.23
2022-12-23T19:32:41.220Z,21.08
2022-12-23T19:35:08.515Z,15.15
2022-12-23T19:37:36.400Z,16.45
2022-12-23T19:40:04.253Z,16.17
2022-12-23T19:42:30.872Z,12.38
2022-12-23T19:44:57.481Z,14.35
2022-12-23T19:47:24.134Z,16.70
2022-12-23T19:49:50.657Z,21.63
2022-12-23T19:52:17.298Z,16.67
2022-12-23T19:54:43.930Z,16.85
2022-12-23T19:57:10.494Z,10.85
2022-12-23T19:59:37.306Z,17.73
2022-12-23T20:02:03.962Z,18.20
2022-12-23T20:04:31.976Z,16.45
2022-12-23T20:06:58.518Z,11.95
2022-12-23T20:09:25.109Z,15.75
2022-12-23T20:11:51.643Z,14.80
2022-12-23T20:14:19.561Z,11.18
2022-12-23T20:16:48.370Z,8.95
2022-12-23T20:19:17.140Z,13.07
2022-12-23T20:21:45.802Z,14.18
2022-12-23T20:24:14.369Z,16.13
2022-12-23T20:26:41.543Z,13.38
2022-12-23T20:29:09.253Z,21.98
2022-12-23T20:31:37.761Z,14.13
2022-12-23T20:34:07.415Z,19.63
2022-12-23T20:36:36.098Z,13.35
2022-12-23T20:39:03.784Z,18.52
2022-12-23T20:41:31.461Z,20.48
2022-12-23T20:46:45.532Z,10.73
2022-12-23T20:49:12.732Z,17.05
2022-12-23T20:51:39.241Z,14.43
2022-12-23T20:54:05.815Z,11.68
2022-12-23T20:56:32.437Z,17.45
2022-12-23T20:59:00.320Z,15.32
2022-12-23T21:01:30.932Z,16.08
2022-12-23T21:03:59.458Z,12.38
2022-12-23T21:06:26.599Z,13.52
2022-12-23T21:08:55.789Z,13.25
2022-12-23T21:11:23.413Z,17.92
2022-12-23T21:13:51.114Z,16.02
2022-12-23T21:16:17.940Z,18.95
2022-12-23T21:18:50.557Z,16.83
2022-12-23T21:21:17.197Z,23.65
2022-12-23T21:23:44.024Z,14.80
2022-12-23T21:26:14.346Z,19.95
2022-12-23T21:31:08.575Z,14.23
2022-12-23T21:33:36.932Z,19.67
2022-12-23T21:36:04.105Z,37.17
2022-12-23T21:38:33.167Z,15.27
2022-12-23T21:41:01.609Z,23.08
2022-12-23T21:43:28.678Z,27.52
2022-12-23T21:45:57.328Z,24.77
2022-12-23T21:48:24.000Z,13.60
2022-12-23T21:50:50.621Z,20.23
2022-12-23T21:53:17.204Z,24.30
2022-12-23T21:55:43.734Z,23.60
2022-12-23T21:58:10.299Z,20.75
2022-12-23T22:00:36.929Z,16.60
2022-12-23T22:03:03.673Z,32.63
2022-12-23T22:05:30.219Z,22.02
2022-12-23T22:07:56.742Z,20.67
2022-12-23T22:10:23.325Z,7.32
2022-12-23T22:12:49.872Z,14.82
2022-12-23T22:15:17.458Z,12.45
2022-12-23T22:17:44.006Z,14.35
2022-12-23T22:20:11.197Z,15.85
2022-12-23T22:22:37.727Z,24.38
2022-12-23T22:25:04.654Z,18.83
2022-12-23T22:27:31.224Z,12.25
2022-12-23T22:29:57.758Z,20.48
2022-12-23T22:32:24.325Z,20.15
2022-12-23T22:34:50.878Z,19.42
2022-12-23T22:37:17.512Z,31.10
2022-12-23T22:39:44.152Z,21.13
2022-12-23T22:42:10.743Z,22.88
2022-12-23T22:44:37.305Z,19.50
2022-12-23T22:47:03.922Z,22.20
2022-12-23T22:49:30.548Z,14.65
2022-12-23T22:51:57.087Z,14.93
2022-12-23T22:54:23.634Z,16.05
2022-12-23T22:56:50.178Z,16.75
2022-12-23T22:59:20.552Z,27.15
2022-12-23T23:04:14.403Z,23.33
2022-12-23T23:06:41.922Z,16.80
2022-12-23T23:09:12.739Z,12.15
2022-12-23T23:11:39.754Z,9.68
2022-12-23T23:14:06.367Z,13.82
2022-12-23T23:16:33.551Z,11.63
2022-12-23T23:19:00.643Z,5.88
2022-12-23T23:21:27.299Z,5.68
2022-12-23T23:23:53.871Z,14.85
2022-12-23T23:26:20.897Z,10.32
2022-12-23T23:28:47.880Z,16.48
2022-12-23T23:31:41.000Z,10.40
2022-12-23T23:34:01.131Z,8.98
2022-12-23T23:36:27.752Z,6.80
2022-12-23T23:38:54.400Z,12.05
2022-12-23T23:41:23.624Z,14.48
2022-12-23T23:43:51.207Z,8.15
2022-12-23T23:46:18.019Z,2.28
2022-12-23T23:48:44.690Z,7.30
2022-12-23T23:51:12.546Z,9.50
2022-12-23T23:53:39.345Z,5.88
2022-12-23T23:56:07.007Z,8.48
2022-12-23T23:58:35.481Z,11.10
